Terminal Aerodrome Forecast
Issued by NWS

Home | Current Version | Previous Version | Text Only | Print | Product List | Glossary On
Versions: 1 2 3 4 5 6 7 8 9 10 11 12 13
000
FTUS45 KABQ 301700
TAFLVS
TAF
KLVS 301721Z 3018/3118 11010KT P6SM SKC
     FM302100 16010KT P6SM SKC
     FM310600 17008KT P6SM SCT250=

USA.gov is the U.S. government's official web portal to all federal, state and local government web resources and services.